createdAt,value
2023-06-07T00:01:18.503Z,14.98
2023-06-07T00:03:46.120Z,14.95
2023-06-07T00:06:15.143Z,14.92
2023-06-07T00:08:44.153Z,14.95
2023-06-07T00:11:10.804Z,14.86
2023-06-07T00:13:37.982Z,14.75
2023-06-07T00:16:04.768Z,14.80
2023-06-07T00:18:31.379Z,14.73
2023-06-07T00:20:58.695Z,14.65
2023-06-07T00:23:27.842Z,14.51
2023-06-07T00:25:54.405Z,14.57
2023-06-07T00:28:21.000Z,14.71
2023-06-07T00:30:47.528Z,14.64
2023-06-07T00:33:14.197Z,14.66
2023-06-07T00:35:40.880Z,14.53
2023-06-07T00:38:07.489Z,14.38
2023-06-07T00:40:34.026Z,14.50
2023-06-07T00:43:00.595Z,14.59
2023-06-07T00:45:27.124Z,14.53
2023-06-07T00:47:53.827Z,14.48
2023-06-07T00:50:20.703Z,14.46
2023-06-07T00:52:47.287Z,14.27
2023-06-07T00:55:14.448Z,14.25
2023-06-07T00:57:42.308Z,14.28
2023-06-07T01:00:14.923Z,14.24
2023-06-07T01:02:42.813Z,14.31
2023-06-07T01:05:09.666Z,14.23
2023-06-07T01:07:36.138Z,14.15
2023-06-07T01:10:03.915Z,14.18
2023-06-07T01:12:31.293Z,14.12
2023-06-07T01:14:58.074Z,14.08
2023-06-07T01:17:25.636Z,14.12
2023-06-07T01:19:54.354Z,14.13
2023-06-07T01:22:25.958Z,14.11
2023-06-07T01:24:53.650Z,13.99
2023-06-07T01:27:22.973Z,14.04
2023-06-07T01:29:51.595Z,14.03
2023-06-07T01:32:18.842Z,13.90
2023-06-07T01:34:46.406Z,13.89
2023-06-07T01:37:13.011Z,13.82
2023-06-07T01:39:41.363Z,13.81
2023-06-07T01:42:10.132Z,13.87
2023-06-07T01:44:39.895Z,13.83
2023-06-07T01:47:07.594Z,13.83
2023-06-07T01:49:34.155Z,13.90
2023-06-07T01:52:00.709Z,13.86
2023-06-07T01:54:27.218Z,13.73
2023-06-07T01:57:17.733Z,13.81
2023-06-07T01:59:56.220Z,13.77
2023-06-07T02:02:34.918Z,13.69
2023-06-07T02:05:08.201Z,13.57
2023-06-07T02:07:43.109Z,13.67
2023-06-07T02:10:10.608Z,13.64
2023-06-07T02:12:38.357Z,13.49
2023-06-07T02:15:05.884Z,13.50
2023-06-07T02:17:33.311Z,13.54
2023-06-07T02:19:59.911Z,13.54
2023-06-07T02:22:26.894Z,13.58
2023-06-07T02:24:53.613Z,13.41
2023-06-07T02:27:20.119Z,13.42
2023-06-07T02:29:46.605Z,13.45
2023-06-07T02:32:13.100Z,13.49
2023-06-07T02:34:40.609Z,13.49
2023-06-07T02:37:07.168Z,13.55
2023-06-07T02:39:33.731Z,13.49
2023-06-07T02:42:00.251Z,13.32
2023-06-07T02:44:26.819Z,13.26
2023-06-07T02:46:53.366Z,13.20
2023-06-07T02:49:20.062Z,13.23
2023-06-07T02:51:46.574Z,13.17
2023-06-07T02:54:14.648Z,13.08
2023-06-07T02:56:41.107Z,13.16
2023-06-07T02:59:07.593Z,13.21
2023-06-07T03:01:34.536Z,13.19
2023-06-07T03:04:01.211Z,13.11
2023-06-07T03:06:30.552Z,13.18
2023-06-07T03:08:57.825Z,13.18
2023-06-07T03:11:24.396Z,13.23
2023-06-07T03:13:51.083Z,13.27
2023-06-07T03:16:17.705Z,13.16
2023-06-07T03:18:44.264Z,13.03
2023-06-07T03:21:10.784Z,13.05
2023-06-07T03:23:37.460Z,13.02
2023-06-07T03:26:04.059Z,12.99
2023-06-07T03:28:31.063Z,12.87
2023-06-07T03:30:57.651Z,12.94
2023-06-07T03:33:24.190Z,12.99
2023-06-07T03:35:51.124Z,13.06
2023-06-07T03:38:17.599Z,12.97
2023-06-07T03:40:44.136Z,12.92
2023-06-07T03:43:10.730Z,12.93
2023-06-07T03:45:37.269Z,12.96
2023-06-07T03:48:04.085Z,12.91
2023-06-07T03:50:30.791Z,12.93
2023-06-07T03:52:57.295Z,12.92
2023-06-07T03:55:23.781Z,12.91
2023-06-07T03:57:51.056Z,12.82
2023-06-07T04:00:18.885Z,12.92
2023-06-07T04:02:45.653Z,12.89
2023-06-07T04:05:13.864Z,12.93
2023-06-07T04:07:41.782Z,13.03
2023-06-07T04:10:08.536Z,12.95
2023-06-07T04:12:35.114Z,12.90
2023-06-07T04:15:01.608Z,13.04
2023-06-07T04:17:28.257Z,13.05
2023-06-07T04:19:57.529Z,13.03
2023-06-07T04:22:25.677Z,12.95
2023-06-07T04:24:52.955Z,12.88
2023-06-07T04:27:19.757Z,12.88
2023-06-07T04:29:50.690Z,12.89
2023-06-07T04:32:20.077Z,12.72
2023-06-07T04:34:47.509Z,12.93
2023-06-07T04:37:14.190Z,13.05
2023-06-07T04:39:42.304Z,13.04
2023-06-07T04:42:10.468Z,12.97
2023-06-07T04:44:38.284Z,12.87
2023-06-07T04:47:09.900Z,13.10
2023-06-07T04:49:39.612Z,13.28
2023-06-07T04:52:06.807Z,13.37
2023-06-07T04:54:37.817Z,13.23
2023-06-07T04:57:05.528Z,13.28
2023-06-07T04:59:36.021Z,13.39
2023-06-07T05:02:03.165Z,13.37
2023-06-07T05:04:31.236Z,13.41
2023-06-07T05:06:59.790Z,13.35
2023-06-07T05:09:28.727Z,13.24
2023-06-07T05:11:57.276Z,13.27
2023-06-07T05:14:23.837Z,13.19
2023-06-07T05:16:50.283Z,13.29
2023-06-07T05:19:18.116Z,13.37
2023-06-07T05:21:44.655Z,13.39
2023-06-07T05:24:11.333Z,13.44
2023-06-07T05:26:38.179Z,13.49
2023-06-07T05:29:04.684Z,13.55
2023-06-07T05:31:31.875Z,13.29
2023-06-07T05:33:58.414Z,13.24
2023-06-07T05:36:24.986Z,13.38
2023-06-07T05:38:51.490Z,13.32
2023-06-07T05:41:18.244Z,13.35
2023-06-07T05:43:44.853Z,13.32
2023-06-07T05:46:12.660Z,13.28
2023-06-07T05:48:39.156Z,13.27
2023-06-07T05:51:08.342Z,13.28
2023-06-07T05:53:35.484Z,13.52
2023-06-07T05:56:02.318Z,13.58
2023-06-07T05:58:28.835Z,13.66
2023-06-07T06:00:55.545Z,13.75
2023-06-07T06:03:22.531Z,13.75
2023-06-07T06:05:49.171Z,13.91
2023-06-07T06:08:16.942Z,14.04
2023-06-07T06:10:45.936Z,14.18
2023-06-07T06:13:12.482Z,14.27
2023-06-07T06:15:39.143Z,14.25
2023-06-07T06:18:05.750Z,14.21
2023-06-07T06:20:35.544Z,14.39
2023-06-07T06:23:05.210Z,14.62
2023-06-07T06:25:32.420Z,14.80
2023-06-07T06:27:59.078Z,14.67
2023-06-07T06:30:27.428Z,14.79
2023-06-07T06:32:54.705Z,14.87
2023-06-07T06:35:21.384Z,14.94
2023-06-07T06:37:47.898Z,14.99
2023-06-07T06:40:14.530Z,15.12
2023-06-07T06:42:40.999Z,15.48
2023-06-07T06:45:08.219Z,15.24
2023-06-07T06:47:37.251Z,15.27
2023-06-07T06:50:09.603Z,15.37
2023-06-07T06:52:44.752Z,15.64
2023-06-07T06:55:11.307Z,15.44
2023-06-07T06:57:37.859Z,15.25
2023-06-07T07:00:07.736Z,15.28
2023-06-07T07:02:34.418Z,15.29
2023-06-07T07:05:02.282Z,15.23
2023-06-07T07:07:29.147Z,15.29
2023-06-07T07:09:55.798Z,15.42
2023-06-07T07:12:22.624Z,15.65
2023-06-07T07:14:49.178Z,15.83
2023-06-07T07:17:15.739Z,15.84
2023-06-07T07:19:42.441Z,15.72
2023-06-07T07:22:09.059Z,15.69
2023-06-07T07:24:35.866Z,15.72
2023-06-07T07:27:05.401Z,16.00
2023-06-07T07:29:31.939Z,16.10
2023-06-07T07:31:58.462Z,16.24
2023-06-07T07:34:25.213Z,16.17
2023-06-07T07:36:51.988Z,16.05
2023-06-07T07:39:19.152Z,15.96
2023-06-07T07:41:46.475Z,16.03
2023-06-07T07:44:12.988Z,16.35
2023-06-07T07:46:39.552Z,16.63
2023-06-07T07:49:06.104Z,16.26
2023-06-07T07:51:32.611Z,16.16
2023-06-07T07:53:59.085Z,16.07
2023-06-07T07:56:26.063Z,16.01
2023-06-07T07:58:52.604Z,16.04
2023-06-07T08:01:20.161Z,16.14
2023-06-07T08:03:47.898Z,16.37
2023-06-07T08:06:14.646Z,16.48
2023-06-07T08:08:41.408Z,16.38
2023-06-07T08:11:07.901Z,16.43
2023-06-07T08:13:34.470Z,16.52
2023-06-07T08:16:00.997Z,16.67
2023-06-07T08:18:27.617Z,16.73
2023-06-07T08:20:54.123Z,16.89
2023-06-07T08:23:20.682Z,16.99
2023-06-07T08:25:47.291Z,17.02
2023-06-07T08:28:13.785Z,17.00
2023-06-07T08:30:43.052Z,17.17
2023-06-07T08:33:09.633Z,17.15
2023-06-07T08:35:36.162Z,17.26
2023-06-07T08:38:02.643Z,17.54
2023-06-07T08:40:30.850Z,17.73
2023-06-07T08:42:58.339Z,17.92
2023-06-07T08:45:24.914Z,17.93
2023-06-07T08:47:52.890Z,18.15
2023-06-07T08:50:23.388Z,18.38
2023-06-07T08:52:54.686Z,18.70
2023-06-07T08:55:23.206Z,18.86
2023-06-07T08:57:53.519Z,18.90
2023-06-07T09:00:26.817Z,19.23
2023-06-07T09:02:56.660Z,19.34
2023-06-07T09:05:24.175Z,19.79
2023-06-07T09:07:51.155Z,19.98
2023-06-07T09:10:21.495Z,20.04
2023-06-07T09:12:49.378Z,19.82
2023-06-07T09:15:20.516Z,19.79
2023-06-07T09:18:01.095Z,20.01
2023-06-07T09:20:29.326Z,20.14
2023-06-07T09:23:10.146Z,20.17
2023-06-07T09:25:38.758Z,20.39
2023-06-07T09:28:10.276Z,20.50
2023-06-07T09:30:51.708Z,20.69
2023-06-07T09:33:29.157Z,20.62
2023-06-07T09:36:17.083Z,20.63
2023-06-07T09:38:43.945Z,20.69
2023-06-07T09:41:11.020Z,20.72
2023-06-07T09:43:47.615Z,20.95
2023-06-07T09:46:16.098Z,20.95
2023-06-07T09:48:46.271Z,21.08
2023-06-07T09:51:12.957Z,21.22
2023-06-07T09:53:53.772Z,21.02
2023-06-07T09:56:22.904Z,21.12
2023-06-07T09:59:06.862Z,21.11
2023-06-07T10:01:44.608Z,21.00
2023-06-07T10:04:12.462Z,21.12
2023-06-07T10:06:44.356Z,21.14
2023-06-07T10:09:11.663Z,20.98
2023-06-07T10:11:39.973Z,20.75
2023-06-07T10:14:07.233Z,20.89
2023-06-07T10:16:38.025Z,21.15
2023-06-07T10:19:14.622Z,21.43
2023-06-07T10:21:45.041Z,21.41
2023-06-07T10:24:17.285Z,21.42
2023-06-07T10:27:00.902Z,21.37
2023-06-07T10:29:41.083Z,21.41
2023-06-07T10:32:26.867Z,21.65
2023-06-07T10:34:56.321Z,21.69
2023-06-07T10:37:23.401Z,21.77
2023-06-07T10:39:50.275Z,21.78
2023-06-07T10:42:17.786Z,21.62
2023-06-07T10:44:44.976Z,21.69
2023-06-07T10:47:23.740Z,21.47
2023-06-07T10:49:52.009Z,21.26
2023-06-07T10:52:19.103Z,21.18
2023-06-07T10:54:46.450Z,21.49
2023-06-07T10:57:13.526Z,21.49
2023-06-07T10:59:40.797Z,21.69
2023-06-07T11:02:28.531Z,21.57
2023-06-07T11:04:59.838Z,21.66
2023-06-07T11:07:33.842Z,21.56
2023-06-07T11:10:06.771Z,21.78
2023-06-07T11:12:37.381Z,21.89
2023-06-07T11:15:23.241Z,21.93
2023-06-07T11:17:57.783Z,21.71
2023-06-07T11:20:37.138Z,21.63
2023-06-07T11:23:29.316Z,21.98
2023-06-07T11:25:57.338Z,22.49
2023-06-07T11:28:33.318Z,22.82
2023-06-07T11:31:01.752Z,22.77
2023-06-07T11:33:29.046Z,22.89
2023-06-07T11:35:56.554Z,22.64
2023-06-07T11:38:25.090Z,22.43
2023-06-07T11:40:51.762Z,22.50
2023-06-07T11:43:24.463Z,22.74
2023-06-07T11:45:51.976Z,22.69
2023-06-07T11:48:18.991Z,22.83
2023-06-07T11:50:45.630Z,23.19
2023-06-07T11:53:13.774Z,23.32
2023-06-07T11:55:40.904Z,23.86
2023-06-07T11:58:07.534Z,24.42
2023-06-07T12:00:36.703Z,24.56
2023-06-07T12:03:05.442Z,24.60
2023-06-07T12:05:32.628Z,24.50
2023-06-07T12:08:00.719Z,24.64
2023-06-07T12:10:31.570Z,24.92
2023-06-07T12:13:15.686Z,25.09
2023-06-07T12:15:44.188Z,25.14
2023-06-07T12:18:14.156Z,24.43
2023-06-07T12:20:45.176Z,24.20
2023-06-07T12:23:13.072Z,24.28
2023-06-07T12:25:41.359Z,24.65
2023-06-07T12:28:10.754Z,24.73
2023-06-07T12:30:44.229Z,24.66
2023-06-07T12:33:18.214Z,24.89
2023-06-07T12:35:49.054Z,24.68
2023-06-07T12:38:16.294Z,24.66
2023-06-07T12:40:43.079Z,24.65
2023-06-07T12:43:09.661Z,24.84
2023-06-07T12:45:36.551Z,25.27
2023-06-07T12:48:03.243Z,25.65
2023-06-07T12:50:29.835Z,26.14
2023-06-07T12:52:56.860Z,26.19
2023-06-07T12:55:23.725Z,26.37
2023-06-07T12:57:50.324Z,26.31
2023-06-07T13:00:17.968Z,26.62
2023-06-07T13:02:44.918Z,26.48
2023-06-07T13:05:12.702Z,26.23
2023-06-07T13:07:41.064Z,25.70
2023-06-07T13:10:11.705Z,25.87
2023-06-07T13:12:39.848Z,26.09
2023-06-07T13:15:06.940Z,26.13
2023-06-07T13:17:34.084Z,26.23
2023-06-07T13:20:01.178Z,26.61
2023-06-07T13:22:30.246Z,26.96
2023-06-07T13:24:58.498Z,26.23
2023-06-07T13:27:27.859Z,25.91
2023-06-07T13:29:55.127Z,25.63
2023-06-07T13:32:22.135Z,25.35
2023-06-07T13:34:48.760Z,25.28
2023-06-07T13:37:15.278Z,25.10
2023-06-07T13:39:41.919Z,25.40
2023-06-07T13:42:08.679Z,25.73
2023-06-07T13:44:35.244Z,25.90
2023-06-07T13:47:02.845Z,26.06
2023-06-07T13:49:29.593Z,25.84
2023-06-07T13:51:56.172Z,26.10
2023-06-07T13:54:22.751Z,26.48
2023-06-07T13:56:49.297Z,26.65
2023-06-07T13:59:15.853Z,26.99
2023-06-07T14:01:43.164Z,26.89
2023-06-07T14:04:09.893Z,26.70
2023-06-07T14:06:38.581Z,26.61
2023-06-07T14:09:05.260Z,26.70
2023-06-07T14:11:32.313Z,26.81
2023-06-07T14:13:58.918Z,26.70
2023-06-07T14:16:28.224Z,26.50
2023-06-07T14:18:55.258Z,26.50
2023-06-07T14:21:21.780Z,26.45
2023-06-07T14:23:48.338Z,26.37
2023-06-07T14:26:16.121Z,26.29
2023-06-07T14:28:44.936Z,26.22
2023-06-07T14:31:12.020Z,26.11
2023-06-07T14:33:38.734Z,25.90
2023-06-07T14:36:06.182Z,25.98
2023-06-07T14:38:32.818Z,26.33
2023-06-07T14:40:59.625Z,26.25
2023-06-07T14:43:26.171Z,26.13
2023-06-07T14:45:52.761Z,26.06
2023-06-07T14:48:19.326Z,26.08
2023-06-07T14:50:45.844Z,26.17
2023-06-07T14:53:12.471Z,26.22
2023-06-07T14:55:38.981Z,26.07
2023-06-07T14:58:06.854Z,25.97
2023-06-07T15:00:34.774Z,25.89
2023-06-07T15:03:01.476Z,25.71
2023-06-07T15:05:29.039Z,25.53
2023-06-07T15:07:56.038Z,25.63
2023-06-07T15:10:22.718Z,25.58
2023-06-07T15:12:49.436Z,25.63
2023-06-07T15:15:17.490Z,25.52
2023-06-07T15:17:45.237Z,25.36
2023-06-07T15:20:12.705Z,25.29
2023-06-07T15:22:39.226Z,25.39
2023-06-07T15:25:07.296Z,25.33
2023-06-07T15:27:34.411Z,25.29
2023-06-07T15:30:01.029Z,25.33
2023-06-07T15:32:27.615Z,25.25
2023-06-07T15:34:54.746Z,25.39
2023-06-07T15:37:21.493Z,25.31
2023-06-07T15:39:48.116Z,25.30
2023-06-07T15:42:15.016Z,25.28
2023-06-07T15:44:42.578Z,25.65
2023-06-07T15:47:10.942Z,25.60
2023-06-07T15:49:37.665Z,25.47
2023-06-07T15:52:04.691Z,25.55
2023-06-07T15:54:31.362Z,25.54
2023-06-07T15:56:57.844Z,25.33
2023-06-07T15:59:24.326Z,25.11
2023-06-07T16:01:50.952Z,25.16
2023-06-07T16:04:17.543Z,24.96
2023-06-07T16:06:44.194Z,24.83
2023-06-07T16:09:10.749Z,24.75
2023-06-07T16:11:42.480Z,24.61
2023-06-07T16:14:12.567Z,24.55
2023-06-07T16:16:40.014Z,24.71
2023-06-07T16:19:07.404Z,24.79
2023-06-07T16:21:34.426Z,25.00
2023-06-07T16:24:03.243Z,25.00
2023-06-07T16:26:30.035Z,24.96
2023-06-07T16:28:56.531Z,24.70
2023-06-07T16:31:24.092Z,24.45
2023-06-07T16:33:50.835Z,24.30
2023-06-07T16:36:18.428Z,24.21
2023-06-07T16:38:44.970Z,24.10
2023-06-07T16:41:11.559Z,23.97
2023-06-07T16:43:38.079Z,23.96
2023-06-07T16:46:04.623Z,23.95
2023-06-07T16:48:31.169Z,23.85
2023-06-07T16:50:57.696Z,23.68
2023-06-07T16:53:24.266Z,23.63
2023-06-07T16:55:50.958Z,23.72
2023-06-07T16:58:17.534Z,23.80
2023-06-07T17:00:44.050Z,23.81
2023-06-07T17:03:10.844Z,23.88
2023-06-07T17:05:37.485Z,23.87
2023-06-07T17:08:04.302Z,23.96
2023-06-07T17:10:37.128Z,23.84
2023-06-07T17:13:03.767Z,23.98
2023-06-07T17:15:30.305Z,23.87
2023-06-07T17:17:56.935Z,23.98
2023-06-07T17:20:23.535Z,24.07
2023-06-07T17:22:50.049Z,24.15
2023-06-07T17:25:16.564Z,24.01
2023-06-07T17:27:43.069Z,23.63
2023-06-07T17:30:09.976Z,23.52
2023-06-07T17:32:36.960Z,23.33
2023-06-07T17:35:03.919Z,23.21
2023-06-07T17:37:31.070Z,23.15
2023-06-07T17:39:57.612Z,23.07
2023-06-07T17:42:24.178Z,22.98
2023-06-07T17:44:52.298Z,22.81
2023-06-07T17:47:19.855Z,22.77
2023-06-07T17:49:46.417Z,22.66
2023-06-07T17:52:21.558Z,22.91
2023-06-07T17:54:49.286Z,23.58
2023-06-07T17:57:15.792Z,23.69
2023-06-07T17:59:42.270Z,24.26
2023-06-07T18:02:10.426Z,24.01
2023-06-07T18:04:37.461Z,23.54
2023-06-07T18:07:07.261Z,23.81
2023-06-07T18:09:34.049Z,24.32
2023-06-07T18:12:00.682Z,24.93
2023-06-07T18:14:27.791Z,24.79
2023-06-07T18:16:54.512Z,25.06
2023-06-07T18:19:21.057Z,26.09
2023-06-07T18:21:47.593Z,26.80
2023-06-07T18:24:14.372Z,26.93
2023-06-07T18:26:41.074Z,26.78
2023-06-07T18:29:07.683Z,26.79
2023-06-07T18:31:34.173Z,26.60
2023-06-07T18:34:00.975Z,27.09
2023-06-07T18:36:27.479Z,27.27
2023-06-07T18:38:54.075Z,27.41
2023-06-07T18:41:20.634Z,26.74
2023-06-07T18:43:47.160Z,26.17
2023-06-07T18:46:13.729Z,25.37
2023-06-07T18:48:40.304Z,24.52
2023-06-07T18:51:06.941Z,24.09
2023-06-07T18:53:33.661Z,23.74
2023-06-07T18:56:00.458Z,23.26
2023-06-07T18:58:27.082Z,23.20
2023-06-07T19:00:54.388Z,23.06
2023-06-07T19:03:22.446Z,23.02
2023-06-07T19:05:49.139Z,22.88
2023-06-07T19:08:15.730Z,22.70
2023-06-07T19:10:42.299Z,22.56
2023-06-07T19:13:08.802Z,22.44
2023-06-07T19:15:35.285Z,22.25
2023-06-07T19:18:05.852Z,22.18
2023-06-07T19:20:34.187Z,21.92
2023-06-07T19:23:00.733Z,21.78
2023-06-07T19:25:27.402Z,21.61
2023-06-07T19:27:53.911Z,21.58
2023-06-07T19:30:20.526Z,21.51
2023-06-07T19:32:47.236Z,21.40
2023-06-07T19:35:13.875Z,21.34
2023-06-07T19:37:40.647Z,21.19
2023-06-07T19:40:09.091Z,21.12
2023-06-07T19:42:37.312Z,21.06
2023-06-07T19:45:04.705Z,20.88
2023-06-07T19:47:32.610Z,20.86
2023-06-07T19:49:59.245Z,20.71
2023-06-07T19:52:28.806Z,20.61
2023-06-07T19:54:55.453Z,20.57
2023-06-07T19:57:22.500Z,20.54
2023-06-07T19:59:49.339Z,20.55
2023-06-07T20:02:16.760Z,20.43
2023-06-07T20:04:44.154Z,20.26
2023-06-07T20:07:11.997Z,20.14
2023-06-07T20:09:40.321Z,20.16
2023-06-07T20:12:07.991Z,20.01
2023-06-07T20:14:36.194Z,19.92
2023-06-07T20:17:02.953Z,19.94
2023-06-07T20:19:29.484Z,19.81
2023-06-07T20:21:56.127Z,19.77
2023-06-07T20:24:22.662Z,19.62
2023-06-07T20:26:49.250Z,19.63
2023-06-07T20:29:15.923Z,19.51
2023-06-07T20:31:44.056Z,19.52
2023-06-07T20:34:11.041Z,19.46
2023-06-07T20:36:38.667Z,19.34
2023-06-07T20:39:05.268Z,19.25
2023-06-07T20:41:33.057Z,19.17
2023-06-07T20:43:59.547Z,19.16
2023-06-07T20:46:27.046Z,19.10
2023-06-07T20:48:55.134Z,19.03
2023-06-07T20:51:22.023Z,18.97
2023-06-07T20:53:49.773Z,18.95
2023-06-07T20:56:19.387Z,18.92
2023-06-07T20:58:46.061Z,18.71
2023-06-07T21:01:12.650Z,18.69
2023-06-07T21:03:40.979Z,18.61
2023-06-07T21:06:07.555Z,18.63
2023-06-07T21:08:36.357Z,18.65
2023-06-07T21:11:03.799Z,18.50
2023-06-07T21:13:31.064Z,18.46
2023-06-07T21:16:00.444Z,18.37
2023-06-07T21:18:28.294Z,18.26
2023-06-07T21:20:55.018Z,18.20
2023-06-07T21:23:21.624Z,18.14
2023-06-07T21:25:48.603Z,18.13
2023-06-07T21:28:15.197Z,18.11
2023-06-07T21:30:41.779Z,18.17
2023-06-07T21:33:08.299Z,18.06
2023-06-07T21:35:34.855Z,17.90
2023-06-07T21:38:01.426Z,17.85
2023-06-07T21:40:32.180Z,17.81
2023-06-07T21:42:58.770Z,17.78
2023-06-07T21:45:27.611Z,17.78
2023-06-07T21:47:54.327Z,17.81
2023-06-07T21:50:21.051Z,17.65
2023-06-07T21:52:47.568Z,17.71
2023-06-07T21:55:14.319Z,17.70
2023-06-07T21:57:40.864Z,17.60
2023-06-07T22:00:12.212Z,17.62
2023-06-07T22:02:39.088Z,17.52
2023-06-07T22:05:06.670Z,17.46
2023-06-07T22:07:33.140Z,17.48
2023-06-07T22:10:00.577Z,17.49
2023-06-07T22:12:29.520Z,17.35
2023-06-07T22:15:01.810Z,17.39
2023-06-07T22:17:29.646Z,17.38
2023-06-07T22:19:57.122Z,17.34
2023-06-07T22:22:23.904Z,17.32
2023-06-07T22:24:50.725Z,17.24
2023-06-07T22:27:17.281Z,17.25
2023-06-07T22:29:47.266Z,17.27
2023-06-07T22:32:15.504Z,17.27
2023-06-07T22:34:45.935Z,17.25
2023-06-07T22:37:14.108Z,17.13
2023-06-07T22:39:42.351Z,17.12
2023-06-07T22:42:08.967Z,17.17
2023-06-07T22:44:38.203Z,17.23
2023-06-07T22:47:08.012Z,17.13
2023-06-07T22:49:37.303Z,17.00
2023-06-07T22:52:05.920Z,16.96
2023-06-07T22:54:32.424Z,16.91
2023-06-07T22:56:58.938Z,16.95
2023-06-07T22:59:26.417Z,16.94
2023-06-07T23:01:54.714Z,16.98
2023-06-07T23:04:21.676Z,16.81
2023-06-07T23:06:49.047Z,16.81
2023-06-07T23:09:16.028Z,16.79
2023-06-07T23:11:42.837Z,16.83
2023-06-07T23:14:09.564Z,16.77
2023-06-07T23:16:36.408Z,16.83
2023-06-07T23:19:04.692Z,16.73
2023-06-07T23:21:32.432Z,16.58
2023-06-07T23:23:59.135Z,16.50
2023-06-07T23:26:26.389Z,16.49
2023-06-07T23:28:53.106Z,16.41
2023-06-07T23:31:19.792Z,16.37
2023-06-07T23:33:46.400Z,16.36
2023-06-07T23:36:14.530Z,16.38
2023-06-07T23:38:41.097Z,16.38
2023-06-07T23:41:07.698Z,16.32
2023-06-07T23:43:34.209Z,16.31
2023-06-07T23:46:00.947Z,16.31
2023-06-07T23:48:28.660Z,16.09
2023-06-07T23:50:56.028Z,15.99
2023-06-07T23:53:22.634Z,15.97
2023-06-07T23:55:49.133Z,16.02
2023-06-07T23:58:15.631Z,16.04
